EWG711 EDDK-LOWI
Flight info
| Callsign | EWG711 |
|---|---|
| Flight time | 1h 3m |
| Altitude | 34000 |
| Route | KUMIK7M KUMIK Y854 BOMBI DCT GIGET DCT ABUKA/N0436F310 DCT BATUB M738 MADEB MADEB1B |
| Aircraft | A319/M-SDE3FGHIRWY/LB1 |
Departure
| Time | 2026-04-20 15:22 |
|---|---|
| Airport | Cologne Bonn Airport (EDDK) |
Arrival
| Time | 2026-04-20 16:26 |
|---|---|
| Airport | Innsbruck Airport (LOWI) |
| Time | Latitude | Longitude | Altitude | Speed | Heading |
|---|---|---|---|---|---|
| 2026-04-20 14:16 | 50.88060 | 7.12194 | 232 ft | 0 kts | 216° |
| 2026-04-20 15:02 | 50.88061 | 7.12195 | 232 ft | 2 kts | 216° |
| 2026-04-20 15:02 | 50.88083 | 7.12216 | 234 ft | 4 kts | 203° |
| 2026-04-20 15:03 | 50.88107 | 7.12226 | 235 ft | 4 kts | 171° |
| 2026-04-20 15:03 | 50.88125 | 7.12213 | 235 ft | 1 kts | 126° |
| 2026-04-20 15:08 | 50.88121 | 7.12223 | 235 ft | 4 kts | 126° |
| 2026-04-20 15:08 | 50.88104 | 7.12261 | 234 ft | 1 kts | 126° |
| 2026-04-20 15:08 | 50.88102 | 7.12265 | 232 ft | 0 kts | 126° |
| 2026-04-20 15:12 | 50.88102 | 7.12263 | 232 ft | 0 kts | 126° |
| 2026-04-20 15:12 | 50.88103 | 7.12263 | 232 ft | 1 kts | 126° |
| 2026-04-20 15:13 | 50.88102 | 7.12263 | 232 ft | 0 kts | 126° |
| 2026-04-20 15:13 | 50.88102 | 7.12264 | 232 ft | 0 kts | 126° |
| 2026-04-20 15:13 | 50.88102 | 7.12265 | 232 ft | 0 kts | 123° |
| 2026-04-20 15:14 | 50.88101 | 7.12267 | 232 ft | 1 kts | 120° |
| 2026-04-20 15:14 | 50.88099 | 7.12298 | 232 ft | 5 kts | 98° |
| 2026-04-20 15:14 | 50.88074 | 7.12374 | 232 ft | 11 kts | 128° |
| 2026-04-20 15:15 | 50.88007 | 7.12487 | 232 ft | 17 kts | 136° |
| 2026-04-20 15:15 | 50.87909 | 7.12608 | 232 ft | 19 kts | 163° |
| 2026-04-20 15:15 | 50.87785 | 7.12674 | 232 ft | 21 kts | 136° |
| 2026-04-20 15:15 | 50.87687 | 7.12818 | 232 ft | 20 kts | 137° |
| 2026-04-20 15:16 | 50.87581 | 7.12971 | 232 ft | 22 kts | 138° |
| 2026-04-20 15:16 | 50.87464 | 7.13138 | 232 ft | 24 kts | 137° |
| 2026-04-20 15:16 | 50.87338 | 7.13324 | 232 ft | 26 kts | 137° |
| 2026-04-20 15:16 | 50.87204 | 7.13518 | 236 ft | 26 kts | 137° |
| 2026-04-20 15:17 | 50.87071 | 7.13711 | 241 ft | 26 kts | 138° |
| 2026-04-20 15:17 | 50.86938 | 7.13901 | 248 ft | 25 kts | 137° |
| 2026-04-20 15:17 | 50.86817 | 7.14076 | 255 ft | 24 kts | 137° |
| 2026-04-20 15:17 | 50.86679 | 7.14214 | 259 ft | 23 kts | 137° |
| 2026-04-20 15:18 | 50.86560 | 7.14387 | 262 ft | 24 kts | 137° |
| 2026-04-20 15:18 | 50.86442 | 7.14559 | 270 ft | 22 kts | 137° |
| 2026-04-20 15:18 | 50.86331 | 7.14721 | 276 ft | 21 kts | 137° |
| 2026-04-20 15:18 | 50.86226 | 7.14873 | 282 ft | 20 kts | 137° |
| 2026-04-20 15:19 | 50.86126 | 7.15018 | 286 ft | 19 kts | 138° |
| 2026-04-20 15:19 | 50.86046 | 7.15160 | 290 ft | 15 kts | 110° |
| 2026-04-20 15:19 | 50.86068 | 7.15310 | 294 ft | 15 kts | 49° |
| 2026-04-20 15:19 | 50.86172 | 7.15356 | 290 ft | 18 kts | 348° |
| 2026-04-20 15:20 | 50.86311 | 7.15305 | 287 ft | 23 kts | 347° |
| 2026-04-20 15:20 | 50.86447 | 7.15227 | 282 ft | 13 kts | 318° |
| 2026-04-20 15:20 | 50.86462 | 7.15205 | 281 ft | 0 kts | 317° |
| 2026-04-20 15:21 | 50.86486 | 7.15171 | 280 ft | 19 kts | 317° |
| 2026-04-20 15:21 | 50.86746 | 7.14795 | 268 ft | 82 kts | 317° |
| 2026-04-20 15:22 | 50.87316 | 7.13971 | 242 ft | 138 kts | 317° |
| 2026-04-20 15:22 | 50.88052 | 7.12898 | 800 ft | 137 kts | 317° |
| 2026-04-20 15:22 | 50.88737 | 7.11903 | 1518 ft | 136 kts | 319° |
| 2026-04-20 15:22 | 50.89646 | 7.11168 | 1746 ft | 167 kts | 354° |
| 2026-04-20 15:23 | 50.90818 | 7.11696 | 2160 ft | 189 kts | 33° |
| 2026-04-20 15:23 | 50.91853 | 7.13092 | 2697 ft | 202 kts | 30° |
| 2026-04-20 15:23 | 50.93089 | 7.14270 | 3384 ft | 211 kts | 35° |
| 2026-04-20 15:23 | 50.94096 | 7.16107 | 3996 ft | 237 kts | 55° |
| 2026-04-20 15:24 | 50.94941 | 7.18452 | 4660 ft | 256 kts | 59° |
| 2026-04-20 15:24 | 50.95782 | 7.21027 | 5661 ft | 262 kts | 60° |
| 2026-04-20 15:24 | 50.96595 | 7.23599 | 6684 ft | 266 kts | 62° |
| 2026-04-20 15:24 | 50.97424 | 7.26252 | 7656 ft | 270 kts | 62° |
| 2026-04-20 15:25 | 50.98106 | 7.29048 | 8605 ft | 277 kts | 77° |
| 2026-04-20 15:25 | 50.98101 | 7.32143 | 9586 ft | 283 kts | 95° |
| 2026-04-20 15:25 | 50.97870 | 7.35260 | 10433 ft | 292 kts | 96° |
| 2026-04-20 15:25 | 50.97616 | 7.38583 | 10764 ft | 315 kts | 96° |
| 2026-04-20 15:26 | 50.97348 | 7.42115 | 11281 ft | 328 kts | 95° |
| 2026-04-20 15:26 | 50.97071 | 7.45748 | 12058 ft | 334 kts | 96° |
| 2026-04-20 15:26 | 50.96790 | 7.49423 | 12873 ft | 338 kts | 96° |
| 2026-04-20 15:26 | 50.96504 | 7.53153 | 13702 ft | 341 kts | 96° |
| 2026-04-20 15:27 | 50.96215 | 7.56908 | 14430 ft | 345 kts | 96° |
| 2026-04-20 15:27 | 50.95925 | 7.60709 | 15112 ft | 349 kts | 96° |
| 2026-04-20 15:27 | 50.95631 | 7.64555 | 15788 ft | 353 kts | 96° |
| 2026-04-20 15:27 | 50.95329 | 7.68450 | 16466 ft | 358 kts | 96° |
| 2026-04-20 15:28 | 50.95022 | 7.72387 | 17131 ft | 362 kts | 96° |
| 2026-04-20 15:28 | 50.94711 | 7.76374 | 17801 ft | 367 kts | 96° |
| 2026-04-20 15:28 | 50.94214 | 7.80362 | 18444 ft | 373 kts | 105° |
| 2026-04-20 15:28 | 50.93242 | 7.84208 | 19048 ft | 377 kts | 117° |
| 2026-04-20 15:29 | 50.91857 | 7.87748 | 19726 ft | 379 kts | 123° |
| 2026-04-20 15:29 | 50.90397 | 7.91219 | 20435 ft | 379 kts | 123° |
| 2026-04-20 15:29 | 50.88939 | 7.94699 | 21155 ft | 379 kts | 123° |
| 2026-04-20 15:29 | 50.87484 | 7.98173 | 21900 ft | 379 kts | 123° |
| 2026-04-20 15:30 | 50.86025 | 8.01661 | 22550 ft | 380 kts | 123° |
| 2026-04-20 15:30 | 50.84510 | 8.05085 | 23268 ft | 380 kts | 128° |
| 2026-04-20 15:30 | 50.82667 | 8.08082 | 23872 ft | 382 kts | 138° |
| 2026-04-20 15:30 | 50.80504 | 8.10548 | 24344 ft | 386 kts | 146° |
| 2026-04-20 15:31 | 50.78224 | 8.12836 | 24744 ft | 390 kts | 146° |
| 2026-04-20 15:31 | 50.75922 | 8.15145 | 25160 ft | 394 kts | 146° |
| 2026-04-20 15:31 | 50.73599 | 8.17479 | 25636 ft | 397 kts | 146° |
| 2026-04-20 15:31 | 50.71260 | 8.19832 | 26005 ft | 402 kts | 147° |
| 2026-04-20 15:32 | 50.68891 | 8.22209 | 26371 ft | 407 kts | 147° |
| 2026-04-20 15:32 | 50.66485 | 8.24623 | 26715 ft | 412 kts | 147° |
| 2026-04-20 15:32 | 50.64047 | 8.27068 | 27031 ft | 418 kts | 147° |
| 2026-04-20 15:32 | 50.61577 | 8.29543 | 27377 ft | 424 kts | 148° |
| 2026-04-20 15:33 | 50.59072 | 8.32049 | 27738 ft | 428 kts | 148° |
| 2026-04-20 15:33 | 50.56534 | 8.34585 | 28058 ft | 434 kts | 149° |
| 2026-04-20 15:33 | 50.53961 | 8.37154 | 28288 ft | 442 kts | 149° |
| 2026-04-20 15:33 | 50.51348 | 8.39759 | 28657 ft | 446 kts | 148° |
| 2026-04-20 15:34 | 50.48714 | 8.42378 | 29057 ft | 449 kts | 149° |
| 2026-04-20 15:34 | 50.46064 | 8.45010 | 29414 ft | 453 kts | 149° |
| 2026-04-20 15:34 | 50.43385 | 8.47664 | 29745 ft | 457 kts | 149° |
| 2026-04-20 15:34 | 50.40681 | 8.50338 | 30071 ft | 462 kts | 149° |
| 2026-04-20 15:35 | 50.37949 | 8.53034 | 30354 ft | 465 kts | 150° |
| 2026-04-20 15:35 | 50.35156 | 8.55637 | 30627 ft | 468 kts | 152° |
| 2026-04-20 15:35 | 50.32300 | 8.58104 | 30871 ft | 471 kts | 155° |
| 2026-04-20 15:35 | 50.29374 | 8.60504 | 31034 ft | 477 kts | 156° |
| 2026-04-20 15:36 | 50.26444 | 8.62847 | 31259 ft | 481 kts | 156° |
| 2026-04-20 15:36 | 50.23451 | 8.65242 | 31513 ft | 484 kts | 156° |
| 2026-04-20 15:36 | 50.20451 | 8.67679 | 31835 ft | 485 kts | 155° |
| 2026-04-20 15:36 | 50.17486 | 8.70134 | 32219 ft | 485 kts | 155° |
| 2026-04-20 15:37 | 50.14515 | 8.72621 | 32596 ft | 485 kts | 155° |
| 2026-04-20 15:37 | 50.11537 | 8.75116 | 32968 ft | 485 kts | 156° |
| 2026-04-20 15:37 | 50.08450 | 8.77189 | 33308 ft | 481 kts | 166° |
| 2026-04-20 15:37 | 50.05223 | 8.78470 | 33583 ft | 476 kts | 176° |
| 2026-04-20 15:38 | 50.01951 | 8.78922 | 33894 ft | 470 kts | 186° |
| 2026-04-20 15:38 | 49.98713 | 8.78607 | 34106 ft | 462 kts | 194° |
| 2026-04-20 15:38 | 49.95558 | 8.77932 | 34135 ft | 456 kts | 194° |
| 2026-04-20 15:39 | 49.89295 | 8.76621 | 34122 ft | 453 kts | 194° |
| 2026-04-20 15:39 | 49.83062 | 8.75334 | 34125 ft | 452 kts | 195° |
| 2026-04-20 15:40 | 49.76830 | 8.74046 | 34122 ft | 452 kts | 195° |
| 2026-04-20 15:40 | 49.70598 | 8.72764 | 34123 ft | 452 kts | 195° |
| 2026-04-20 15:41 | 49.64366 | 8.71502 | 34128 ft | 452 kts | 195° |
| 2026-04-20 15:41 | 49.58124 | 8.70252 | 34114 ft | 451 kts | 196° |
| 2026-04-20 15:42 | 49.51898 | 8.69000 | 34122 ft | 451 kts | 196° |
| 2026-04-20 15:42 | 49.45515 | 8.69193 | 34134 ft | 471 kts | 176° |
| 2026-04-20 15:42 | 49.42330 | 8.70561 | 34130 ft | 481 kts | 165° |
| 2026-04-20 15:43 | 49.39226 | 8.72518 | 34095 ft | 482 kts | 164° |
| 2026-04-20 15:43 | 49.33021 | 8.76436 | 34097 ft | 482 kts | 164° |
| 2026-04-20 15:44 | 49.26853 | 8.80288 | 34098 ft | 482 kts | 164° |
| 2026-04-20 15:44 | 49.20643 | 8.84167 | 34092 ft | 481 kts | 164° |
| 2026-04-20 15:45 | 49.14441 | 8.88023 | 34087 ft | 481 kts | 164° |
| 2026-04-20 15:45 | 49.08236 | 8.91873 | 34086 ft | 481 kts | 164° |
| 2026-04-20 15:46 | 49.02035 | 8.95730 | 34082 ft | 481 kts | 164° |
| 2026-04-20 15:46 | 48.95823 | 8.99582 | 34074 ft | 481 kts | 164° |
| 2026-04-20 15:47 | 48.89618 | 9.03403 | 34049 ft | 481 kts | 164° |
| 2026-04-20 15:47 | 48.83406 | 9.07206 | 34059 ft | 481 kts | 164° |
| 2026-04-20 15:48 | 48.77201 | 9.11008 | 34065 ft | 481 kts | 164° |
| 2026-04-20 15:48 | 48.71008 | 9.14801 | 34031 ft | 481 kts | 163° |
| 2026-04-20 15:49 | 48.64811 | 9.18589 | 34074 ft | 481 kts | 164° |
| 2026-04-20 15:49 | 48.59638 | 9.21742 | 34069 ft | 482 kts | 164° |
| 2026-04-20 15:50 | 48.53410 | 9.25521 | 34069 ft | 482 kts | 164° |
| 2026-04-20 15:50 | 48.47182 | 9.29277 | 34063 ft | 482 kts | 164° |
| 2026-04-20 15:51 | 48.40957 | 9.33032 | 34064 ft | 482 kts | 164° |
| 2026-04-20 15:51 | 48.34723 | 9.36797 | 34062 ft | 482 kts | 164° |
| 2026-04-20 15:52 | 48.28531 | 9.40523 | 34060 ft | 482 kts | 164° |
| 2026-04-20 15:52 | 48.22298 | 9.44255 | 34047 ft | 482 kts | 163° |
| 2026-04-20 15:53 | 48.12969 | 9.49826 | 34061 ft | 481 kts | 163° |
| 2026-04-20 15:53 | 48.06750 | 9.53522 | 34059 ft | 480 kts | 164° |
| 2026-04-20 15:54 | 48.00686 | 9.57790 | 34038 ft | 487 kts | 151° |
| 2026-04-20 15:54 | 47.95178 | 9.63710 | 34048 ft | 488 kts | 147° |
| 2026-04-20 15:55 | 47.89682 | 9.69644 | 34046 ft | 487 kts | 148° |
| 2026-04-20 15:55 | 47.84182 | 9.75538 | 34061 ft | 487 kts | 148° |
| 2026-04-20 15:56 | 47.78684 | 9.81441 | 34023 ft | 487 kts | 148° |
| 2026-04-20 15:56 | 47.73189 | 9.87338 | 34035 ft | 487 kts | 148° |
| 2026-04-20 15:57 | 47.67685 | 9.93208 | 34040 ft | 487 kts | 148° |
| 2026-04-20 15:57 | 47.62182 | 9.99065 | 34044 ft | 487 kts | 148° |
| 2026-04-20 15:58 | 47.56690 | 10.04898 | 34016 ft | 486 kts | 148° |
| 2026-04-20 15:58 | 47.51232 | 10.10681 | 33743 ft | 483 kts | 148° |
| 2026-04-20 15:59 | 47.48471 | 10.13603 | 33386 ft | 480 kts | 148° |
| 2026-04-20 15:59 | 47.45753 | 10.16478 | 32825 ft | 479 kts | 148° |
| 2026-04-20 15:59 | 47.43079 | 10.19270 | 32298 ft | 476 kts | 150° |
| 2026-04-20 15:59 | 47.40318 | 10.21967 | 31730 ft | 473 kts | 152° |
| 2026-04-20 16:00 | 47.37569 | 10.24746 | 31169 ft | 475 kts | 146° |
| 2026-04-20 16:00 | 47.35150 | 10.27995 | 30617 ft | 478 kts | 135° |
| 2026-04-20 16:00 | 47.33132 | 10.31924 | 30003 ft | 481 kts | 123° |
| 2026-04-20 16:00 | 47.31674 | 10.36360 | 29435 ft | 481 kts | 110° |
| 2026-04-20 16:01 | 47.30777 | 10.41100 | 28882 ft | 478 kts | 100° |
| 2026-04-20 16:01 | 47.30151 | 10.45895 | 28300 ft | 475 kts | 100° |
| 2026-04-20 16:01 | 47.29500 | 10.50662 | 27747 ft | 473 kts | 100° |
| 2026-04-20 16:01 | 47.29015 | 10.55424 | 27192 ft | 470 kts | 92° |
| 2026-04-20 16:02 | 47.28996 | 10.60205 | 26681 ft | 463 kts | 81° |
| 2026-04-20 16:02 | 47.29423 | 10.64851 | 26190 ft | 456 kts | 75° |
| 2026-04-20 16:02 | 47.29946 | 10.69465 | 25704 ft | 453 kts | 75° |
| 2026-04-20 16:02 | 47.30458 | 10.74013 | 25242 ft | 450 kts | 76° |
| 2026-04-20 16:03 | 47.30966 | 10.78575 | 24776 ft | 449 kts | 76° |
| 2026-04-20 16:03 | 47.31459 | 10.83046 | 24324 ft | 447 kts | 76° |
| 2026-04-20 16:03 | 47.31953 | 10.87557 | 23864 ft | 445 kts | 76° |
| 2026-04-20 16:03 | 47.32442 | 10.92054 | 23379 ft | 441 kts | 75° |
| 2026-04-20 16:04 | 47.32920 | 10.96486 | 22909 ft | 433 kts | 76° |
| 2026-04-20 16:04 | 47.33384 | 11.00822 | 22496 ft | 424 kts | 76° |
| 2026-04-20 16:04 | 47.33843 | 11.05099 | 22035 ft | 419 kts | 76° |
| 2026-04-20 16:04 | 47.34302 | 11.09336 | 21582 ft | 415 kts | 76° |
| 2026-04-20 16:05 | 47.34752 | 11.13500 | 21152 ft | 410 kts | 76° |
| 2026-04-20 16:05 | 47.35200 | 11.17646 | 20687 ft | 408 kts | 76° |
| 2026-04-20 16:05 | 47.35646 | 11.21776 | 20227 ft | 405 kts | 76° |
| 2026-04-20 16:05 | 47.36084 | 11.25883 | 19764 ft | 405 kts | 76° |
| 2026-04-20 16:06 | 47.36514 | 11.29962 | 19306 ft | 402 kts | 77° |
| 2026-04-20 16:06 | 47.36944 | 11.34038 | 18834 ft | 402 kts | 77° |
| 2026-04-20 16:06 | 47.37372 | 11.38109 | 18359 ft | 400 kts | 77° |
| 2026-04-20 16:06 | 47.37793 | 11.42151 | 17838 ft | 397 kts | 77° |
| 2026-04-20 16:07 | 47.38203 | 11.46105 | 17384 ft | 394 kts | 78° |
| 2026-04-20 16:07 | 47.38624 | 11.50154 | 16892 ft | 393 kts | 78° |
| 2026-04-20 16:07 | 47.39030 | 11.54068 | 16431 ft | 391 kts | 78° |
| 2026-04-20 16:07 | 47.39440 | 11.58021 | 15953 ft | 388 kts | 78° |
| 2026-04-20 16:08 | 47.39843 | 11.61933 | 15476 ft | 384 kts | 79° |
| 2026-04-20 16:08 | 47.40240 | 11.65820 | 14996 ft | 381 kts | 79° |
| 2026-04-20 16:08 | 47.40516 | 11.69710 | 14210 ft | 387 kts | 90° |
| 2026-04-20 16:08 | 47.40245 | 11.73726 | 13122 ft | 398 kts | 95° |
| 2026-04-20 16:09 | 47.40421 | 11.77799 | 12007 ft | 401 kts | 75° |
| 2026-04-20 16:09 | 47.41443 | 11.81622 | 10936 ft | 402 kts | 57° |
| 2026-04-20 16:09 | 47.43161 | 11.84867 | 9896 ft | 400 kts | 45° |
| 2026-04-20 16:09 | 47.45024 | 11.87852 | 9302 ft | 389 kts | 44° |
| 2026-04-20 16:10 | 47.46828 | 11.90669 | 9094 ft | 366 kts | 41° |
| 2026-04-20 16:10 | 47.48865 | 11.92627 | 9022 ft | 336 kts | 18° |
| 2026-04-20 16:10 | 47.51046 | 11.93343 | 9045 ft | 310 kts | 4° |
| 2026-04-20 16:10 | 47.53128 | 11.93727 | 9036 ft | 292 kts | 4° |
| 2026-04-20 16:11 | 47.55087 | 11.94206 | 9038 ft | 280 kts | 14° |
| 2026-04-20 16:11 | 47.56786 | 11.95516 | 9045 ft | 272 kts | 36° |
| 2026-04-20 16:11 | 47.57997 | 11.97587 | 9044 ft | 265 kts | 58° |
| 2026-04-20 16:11 | 47.58592 | 12.00100 | 9041 ft | 254 kts | 81° |
| 2026-04-20 16:12 | 47.58552 | 12.02652 | 9047 ft | 247 kts | 102° |
| 2026-04-20 16:12 | 47.57937 | 12.04996 | 9046 ft | 244 kts | 124° |
| 2026-04-20 16:12 | 47.56833 | 12.06891 | 9047 ft | 241 kts | 144° |
| 2026-04-20 16:12 | 47.55402 | 12.08113 | 9046 ft | 237 kts | 165° |
| 2026-04-20 16:13 | 47.53820 | 12.08568 | 9046 ft | 229 kts | 184° |
| 2026-04-20 16:13 | 47.52253 | 12.08249 | 9048 ft | 226 kts | 202° |
| 2026-04-20 16:13 | 47.50876 | 12.07265 | 9047 ft | 222 kts | 220° |
| 2026-04-20 16:13 | 47.49768 | 12.05715 | 9050 ft | 218 kts | 234° |
| 2026-04-20 16:14 | 47.48798 | 12.03994 | 9047 ft | 218 kts | 234° |
| 2026-04-20 16:14 | 47.47817 | 12.02276 | 9048 ft | 219 kts | 233° |
| 2026-04-20 16:14 | 47.46830 | 12.00555 | 9048 ft | 219 kts | 233° |
| 2026-04-20 16:14 | 47.45844 | 11.98834 | 9046 ft | 219 kts | 233° |
| 2026-04-20 16:15 | 47.44860 | 11.97114 | 9047 ft | 221 kts | 233° |
| 2026-04-20 16:15 | 47.43868 | 11.95383 | 9049 ft | 220 kts | 232° |
| 2026-04-20 16:15 | 47.42759 | 11.93834 | 9045 ft | 222 kts | 221° |
| 2026-04-20 16:15 | 47.41570 | 11.92676 | 9046 ft | 224 kts | 214° |
| 2026-04-20 16:16 | 47.40230 | 11.91503 | 9046 ft | 223 kts | 215° |
| 2026-04-20 16:16 | 47.38895 | 11.90331 | 9044 ft | 224 kts | 216° |
| 2026-04-20 16:16 | 47.37549 | 11.89145 | 9043 ft | 225 kts | 216° |
| 2026-04-20 16:16 | 47.36203 | 11.87956 | 9049 ft | 226 kts | 215° |
| 2026-04-20 16:17 | 47.34857 | 11.86751 | 9046 ft | 225 kts | 217° |
| 2026-04-20 16:17 | 47.33732 | 11.85185 | 9037 ft | 221 kts | 237° |
| 2026-04-20 16:17 | 47.33016 | 11.83213 | 9032 ft | 218 kts | 253° |
| 2026-04-20 16:17 | 47.32470 | 11.81121 | 9033 ft | 217 kts | 254° |
| 2026-04-20 16:18 | 47.32052 | 11.79009 | 9037 ft | 215 kts | 259° |
| 2026-04-20 16:18 | 47.31733 | 11.76846 | 8858 ft | 214 kts | 260° |
| 2026-04-20 16:18 | 47.31440 | 11.74685 | 8546 ft | 217 kts | 262° |
| 2026-04-20 16:18 | 47.31144 | 11.72494 | 8178 ft | 220 kts | 262° |
| 2026-04-20 16:19 | 47.30842 | 11.70272 | 7810 ft | 223 kts | 261° |
| 2026-04-20 16:19 | 47.30534 | 11.68012 | 7429 ft | 227 kts | 261° |
| 2026-04-20 16:19 | 47.30220 | 11.65707 | 7043 ft | 231 kts | 261° |
| 2026-04-20 16:19 | 47.29900 | 11.63363 | 6658 ft | 235 kts | 260° |
| 2026-04-20 16:20 | 47.29574 | 11.60977 | 6261 ft | 240 kts | 260° |
| 2026-04-20 16:20 | 47.29242 | 11.58553 | 5846 ft | 244 kts | 260° |
| 2026-04-20 16:20 | 47.28902 | 11.56076 | 5402 ft | 248 kts | 259° |
| 2026-04-20 16:20 | 47.28563 | 11.53607 | 4949 ft | 252 kts | 259° |
| 2026-04-20 16:21 | 47.28211 | 11.51055 | 4514 ft | 256 kts | 259° |
| 2026-04-20 16:21 | 47.27802 | 11.48484 | 4117 ft | 260 kts | 251° |
| 2026-04-20 16:21 | 47.27076 | 11.46041 | 3943 ft | 253 kts | 244° |
| 2026-04-20 16:21 | 47.26327 | 11.43858 | 4036 ft | 225 kts | 244° |
| 2026-04-20 16:22 | 47.25653 | 11.41903 | 4005 ft | 206 kts | 244° |
| 2026-04-20 16:22 | 47.25058 | 11.40188 | 4267 ft | 173 kts | 244° |
| 2026-04-20 16:22 | 47.24606 | 11.38662 | 4473 ft | 157 kts | 252° |
| 2026-04-20 16:22 | 47.24333 | 11.37131 | 4486 ft | 151 kts | 258° |
| 2026-04-20 16:23 | 47.24107 | 11.35631 | 4343 ft | 153 kts | 258° |
| 2026-04-20 16:23 | 47.23840 | 11.34148 | 4113 ft | 145 kts | 257° |
| 2026-04-20 16:23 | 47.23618 | 11.32742 | 3968 ft | 139 kts | 261° |
| 2026-04-20 16:23 | 47.23450 | 11.31356 | 3851 ft | 136 kts | 265° |
| 2026-04-20 16:24 | 47.23309 | 11.29973 | 3718 ft | 137 kts | 265° |
| 2026-04-20 16:24 | 47.23527 | 11.28686 | 3364 ft | 130 kts | 320° |
| 2026-04-20 16:24 | 47.24358 | 11.28450 | 3123 ft | 129 kts | 21° |
| 2026-04-20 16:24 | 47.24987 | 11.29441 | 2928 ft | 142 kts | 56° |
| 2026-04-20 16:25 | 47.25489 | 11.30749 | 2446 ft | 143 kts | 65° |
| 2026-04-20 16:25 | 47.25779 | 11.32087 | 2122 ft | 132 kts | 82° |
| 2026-04-20 16:25 | 47.25912 | 11.33379 | 1917 ft | 125 kts | 83° |
| 2026-04-20 16:25 | 47.26025 | 11.34464 | 1902 ft | 87 kts | 80° |
| 2026-04-20 16:26 | 47.26096 | 11.35090 | 1895 ft | 33 kts | 81° |
| 2026-04-20 16:26 | 47.26105 | 11.35237 | 1907 ft | 7 kts | 112° |
| 2026-04-20 16:26 | 47.26047 | 11.35263 | 1902 ft | 10 kts | 170° |
| 2026-04-20 16:26 | 47.25966 | 11.35282 | 1896 ft | 11 kts | 172° |
| 2026-04-20 16:27 | 47.25962 | 11.35283 | 1898 ft | 0 kts | 172° |
| 2026-04-20 16:27 | 47.25950 | 11.35285 | 1901 ft | 3 kts | 171° |
| 2026-04-20 16:27 | 47.25946 | 11.35286 | 1903 ft | 0 kts | 171° |
| 2026-04-20 16:28 | 47.25938 | 11.35288 | 1905 ft | 3 kts | 171° |
| 2026-04-20 16:28 | 47.25903 | 11.35265 | 1897 ft | 8 kts | 239° |
| 2026-04-20 16:28 | 47.25891 | 11.35177 | 1897 ft | 8 kts | 261° |
| 2026-04-20 16:28 | 47.25887 | 11.35138 | 1907 ft | 3 kts | 261° |
| 2026-04-20 16:29 | 47.25880 | 11.35076 | 1907 ft | 9 kts | 261° |
| 2026-04-20 16:29 | 47.25855 | 11.35042 | 1905 ft | 6 kts | 166° |
| 2026-04-20 16:29 | 47.25822 | 11.35049 | 1903 ft | 0 kts | 171° |